sensor_id;sensor_type;location;lat;lon;timestamp;pressure;altitude;pressure_sealevel;temperature;humidity
79671;BME280;69137;50.878;8.050;2023-05-10T00:00:10;97560.84;;;11.69;91.11
79671;BME280;69137;50.878;8.050;2023-05-10T00:02:36;97555.16;;;11.66;91.76
79671;BME280;69137;50.878;8.050;2023-05-10T00:05:01;97549.97;;;11.64;91.12
79671;BME280;69137;50.878;8.050;2023-05-10T00:07:27;97554.03;;;11.67;91.37
79671;BME280;69137;50.878;8.050;2023-05-10T00:09:52;97554.34;;;11.65;91.37
79671;BME280;69137;50.878;8.050;2023-05-10T00:12:17;97558.09;;;11.69;91.02
79671;BME280;69137;50.878;8.050;2023-05-10T00:14:43;97551.88;;;11.64;91.45
79671;BME280;69137;50.878;8.050;2023-05-10T00:17:08;97553.16;;;11.71;90.40
79671;BME280;69137;50.878;8.050;2023-05-10T00:19:34;97554.03;;;11.67;90.88
79671;BME280;69137;50.878;8.050;2023-05-10T00:21:59;97558.63;;;11.71;90.95
79671;BME280;69137;50.878;8.050;2023-05-10T00:24:24;97547.22;;;11.64;91.18
79671;BME280;69137;50.878;8.050;2023-05-10T00:26:50;97551.03;;;11.68;90.77
79671;BME280;69137;50.878;8.050;2023-05-10T00:29:15;97556.50;;;11.68;91.04
79671;BME280;69137;50.878;8.050;2023-05-10T00:31:41;97553.97;;;11.72;90.76
79671;BME280;69137;50.878;8.050;2023-05-10T00:34:06;97550.22;;;11.68;91.20
79671;BME280;69137;50.878;8.050;2023-05-10T00:36:32;97554.56;;;11.69;90.80
79671;BME280;69137;50.878;8.050;2023-05-10T00:38:57;97544.94;;;11.71;90.49
79671;BME280;69137;50.878;8.050;2023-05-10T00:41:23;97543.84;;;11.72;91.58
79671;BME280;69137;50.878;8.050;2023-05-10T00:43:48;97548.75;;;11.75;91.08
79671;BME280;69137;50.878;8.050;2023-05-10T00:46:15;97545.47;;;11.73;90.84
79671;BME280;69137;50.878;8.050;2023-05-10T00:48:41;97547.41;;;11.73;90.71
79671;BME280;69137;50.878;8.050;2023-05-10T00:51:07;97545.69;;;11.77;90.28
79671;BME280;69137;50.878;8.050;2023-05-10T00:53:34;97553.38;;;11.75;90.74
79671;BME280;69137;50.878;8.050;2023-05-10T00:55:59;97550.34;;;11.76;90.75
79671;BME280;69137;50.878;8.050;2023-05-10T00:58:25;97549.75;;;11.79;90.77
79671;BME280;69137;50.878;8.050;2023-05-10T01:00:54;97538.81;;;11.79;90.40
79671;BME280;69137;50.878;8.050;2023-05-10T01:03:20;97543.03;;;11.72;90.95
79671;BME280;69137;50.878;8.050;2023-05-10T01:05:46;97544.94;;;11.71;91.33
79671;BME280;69137;50.878;8.050;2023-05-10T01:08:11;97550.22;;;11.68;91.03
79671;BME280;69137;50.878;8.050;2023-05-10T01:10:37;97543.09;;;11.67;91.48
79671;BME280;69137;50.878;8.050;2023-05-10T01:13:02;97547.41;;;11.73;91.36
79671;BME280;69137;50.878;8.050;2023-05-10T01:15:28;97544.81;;;11.63;91.34
79671;BME280;69137;50.878;8.050;2023-05-10T01:17:55;97549.53;;;11.57;91.76
79671;BME280;69137;50.878;8.050;2023-05-10T01:20:21;97544.22;;;11.66;91.68
79671;BME280;69137;50.878;8.050;2023-05-10T01:22:54;97546.56;;;11.72;91.62
79671;BME280;69137;50.878;8.050;2023-05-10T01:25:43;97544.22;;;11.66;91.74
79671;BME280;69137;50.878;8.050;2023-05-10T01:31:03;97546.13;;;11.65;91.90
79671;BME280;69137;50.878;8.050;2023-05-10T01:36:31;97563.50;;;11.74;91.58
79671;BME280;69137;50.878;8.050;2023-05-10T01:39:02;97548.28;;;11.68;91.72
79671;BME280;69137;50.878;8.050;2023-05-10T01:41:41;97548.28;;;11.68;91.68
79671;BME280;69137;50.878;8.050;2023-05-10T01:47:40;97556.56;;;11.63;91.50
79671;BME280;69137;50.878;8.050;2023-05-10T01:50:12;97552.47;;;11.61;91.14
79671;BME280;69137;50.878;8.050;2023-05-10T01:52:42;97553.81;;;11.63;90.66
79671;BME280;69137;50.878;8.050;2023-05-10T01:55:13;97556.91;;;11.56;91.46
79671;BME280;69137;50.878;8.050;2023-05-10T01:57:40;97550.69;;;11.51;91.74
79671;BME280;69137;50.878;8.050;2023-05-10T02:00:08;97559.88;;;11.60;91.23
79671;BME280;69137;50.878;8.050;2023-05-10T02:02:40;97561.47;;;11.42;91.61
79671;BME280;69137;50.878;8.050;2023-05-10T02:05:07;97563.09;;;11.43;92.00
79671;BME280;69137;50.878;8.050;2023-05-10T02:07:35;97552.66;;;11.45;91.46
79671;BME280;69137;50.878;8.050;2023-05-10T02:10:06;97565.75;;;11.48;91.24
79671;BME280;69137;50.878;8.050;2023-05-10T02:12:37;97564.94;;;11.48;91.10
79671;BME280;69137;50.878;8.050;2023-05-10T02:15:05;97562.28;;;11.43;91.31
79671;BME280;69137;50.878;8.050;2023-05-10T02:17:32;97564.84;;;11.34;91.85
79671;BME280;69137;50.878;8.050;2023-05-10T02:19:59;97566.75;;;11.33;91.45
79671;BME280;69137;50.878;8.050;2023-05-10T02:22:27;97571.00;;;11.45;91.14
79671;BME280;69137;50.878;8.050;2023-05-10T02:24:55;97576.28;;;11.36;91.53
79671;BME280;69137;50.878;8.050;2023-05-10T02:27:23;97569.47;;;11.33;91.48
79671;BME280;69137;50.878;8.050;2023-05-10T02:29:51;97579.56;;;11.38;91.65
79671;BME280;69137;50.878;8.050;2023-05-10T02:32:17;97583.88;;;11.44;91.49
79671;BME280;69137;50.878;8.050;2023-05-10T02:34:44;97576.41;;;11.50;91.24
79671;BME280;69137;50.878;8.050;2023-05-10T02:37:14;97571.06;;;11.40;91.50
79671;BME280;69137;50.878;8.050;2023-05-10T02:39:41;97571.75;;;11.50;91.12
79671;BME280;69137;50.878;8.050;2023-05-10T02:42:15;97571.75;;;11.50;90.18
79671;BME280;69137;50.878;8.050;2023-05-10T02:44:42;97574.78;;;11.49;90.68
79671;BME280;69137;50.878;8.050;2023-05-10T02:47:08;97568.34;;;11.40;90.45
79671;BME280;69137;50.878;8.050;2023-05-10T02:49:34;97577.88;;;11.42;90.77
79671;BME280;69137;50.878;8.050;2023-05-10T02:52:01;97580.59;;;11.42;90.54
79671;BME280;69137;50.878;8.050;2023-05-10T02:54:33;97578.25;;;11.30;92.23
79671;BME280;69137;50.878;8.050;2023-05-10T02:57:00;97585.06;;;11.33;91.41
79671;BME280;69137;50.878;8.050;2023-05-10T02:59:29;97587.47;;;11.40;91.88
79671;BME280;69137;50.878;8.050;2023-05-10T03:01:54;97579.16;;;11.50;91.02
79671;BME280;69137;50.878;8.050;2023-05-10T03:04:19;97586.56;;;11.49;90.60
79671;BME280;69137;50.878;8.050;2023-05-10T03:06:45;97580.59;;;11.42;90.45
79671;BME280;69137;50.878;8.050;2023-05-10T03:09:11;97585.28;;;11.42;90.52
79671;BME280;69137;50.878;8.050;2023-05-10T03:20:04;97584.22;;;11.37;91.12
79671;BME280;69137;50.878;8.050;2023-05-10T03:22:34;97584.53;;;11.31;91.06
79671;BME280;69137;50.878;8.050;2023-05-10T03:25:06;97581.47;;;11.37;91.25
79671;BME280;69137;50.878;8.050;2023-05-10T03:27:32;97582.00;;;11.40;91.17
79671;BME280;69137;50.878;8.050;2023-05-10T03:29:58;97577.06;;;11.42;91.09
79671;BME280;69137;50.878;8.050;2023-05-10T03:32:25;97578.47;;;11.39;90.85
79671;BME280;69137;50.878;8.050;2023-05-10T03:34:52;97582.59;;;11.36;91.57
79671;BME280;69137;50.878;8.050;2023-05-10T03:37:17;97583.34;;;11.42;91.23
79671;BME280;69137;50.878;8.050;2023-05-10T03:39:43;97584.91;;;11.48;91.10
79671;BME280;69137;50.878;8.050;2023-05-10T03:42:08;97587.94;;;11.47;91.01
79671;BME280;69137;50.878;8.050;2023-05-10T03:44:37;97595.56;;;11.50;91.07
79671;BME280;69137;50.878;8.050;2023-05-10T03:47:03;97598.84;;;11.52;90.93
79671;BME280;69137;50.878;8.050;2023-05-10T03:49:29;97603.34;;;11.62;90.07
79671;BME280;69137;50.878;8.050;2023-05-10T03:51:54;97599.81;;;11.61;90.69
79671;BME280;69137;50.878;8.050;2023-05-10T03:54:19;97593.59;;;11.55;91.14
79671;BME280;69137;50.878;8.050;2023-05-10T03:56:45;97594.38;;;11.56;90.70
79671;BME280;69137;50.878;8.050;2023-05-10T03:59:13;97596.09;;;11.52;90.66
79671;BME280;69137;50.878;8.050;2023-05-10T04:01:38;97602.00;;;11.59;90.70
79671;BME280;69137;50.878;8.050;2023-05-10T04:04:04;97598.78;;;11.57;91.16
79671;BME280;69137;50.878;8.050;2023-05-10T04:06:29;97604.25;;;11.57;91.73
79671;BME280;69137;50.878;8.050;2023-05-10T04:08:54;97605.75;;;11.68;91.04
79671;BME280;69137;50.878;8.050;2023-05-10T04:11:20;97609.56;;;11.67;90.69
79671;BME280;69137;50.878;8.050;2023-05-10T04:13:47;97604.47;;;11.61;90.50
79671;BME280;69137;50.878;8.050;2023-05-10T04:16:12;97608.81;;;11.62;90.80
79671;BME280;69137;50.878;8.050;2023-05-10T04:18:38;97604.69;;;11.64;91.14
79671;BME280;69137;50.878;8.050;2023-05-10T04:21:04;97614.75;;;11.69;90.85
79671;BME280;69137;50.878;8.050;2023-05-10T04:23:35;97610.63;;;11.71;90.86
79671;BME280;69137;50.878;8.050;2023-05-10T04:26:01;97611.88;;;11.60;91.28
79671;BME280;69137;50.878;8.050;2023-05-10T04:28:27;97627.91;;;11.67;91.00
79671;BME280;69137;50.878;8.050;2023-05-10T04:30:52;97618.16;;;11.61;91.67
79671;BME280;69137;50.878;8.050;2023-05-10T04:33:18;97618.03;;;11.47;91.71
79671;BME280;69137;50.878;8.050;2023-05-10T04:35:43;97614.06;;;11.58;91.58
79671;BME280;69137;50.878;8.050;2023-05-10T04:38:09;97614.22;;;11.67;92.05
79671;BME280;69137;50.878;8.050;2023-05-10T04:40:35;97623.09;;;11.58;91.94
79671;BME280;69137;50.878;8.050;2023-05-10T04:43:00;97615.63;;;11.64;91.71
79671;BME280;69137;50.878;8.050;2023-05-10T04:45:26;97617.28;;;11.65;91.14
79671;BME280;69137;50.878;8.050;2023-05-10T04:47:51;97626.50;;;11.69;91.01
79671;BME280;69137;50.878;8.050;2023-05-10T04:50:17;97625.75;;;11.64;91.48
79671;BME280;69137;50.878;8.050;2023-05-10T04:52:42;97631.00;;;11.60;91.84
79671;BME280;69137;50.878;8.050;2023-05-10T04:55:08;97632.94;;;11.59;91.66
79671;BME280;69137;50.878;8.050;2023-05-10T04:57:35;97631.88;;;11.55;91.71
79671;BME280;69137;50.878;8.050;2023-05-10T05:00:00;97626.13;;;11.57;91.86
79671;BME280;69137;50.878;8.050;2023-05-10T05:02:25;97637.94;;;11.52;91.97
79671;BME280;69137;50.878;8.050;2023-05-10T05:04:51;97651.84;;;11.56;91.53
79671;BME280;69137;50.878;8.050;2023-05-10T05:07:16;97648.13;;;11.47;92.25
79671;BME280;69137;50.878;8.050;2023-05-10T05:09:42;97650.28;;;11.50;92.12
79671;BME280;69137;50.878;8.050;2023-05-10T05:12:07;97646.19;;;11.47;92.51
79671;BME280;69137;50.878;8.050;2023-05-10T05:14:32;97652.69;;;11.51;92.16
79671;BME280;69137;50.878;8.050;2023-05-10T05:16:58;97649.47;;;11.49;92.62
79671;BME280;69137;50.878;8.050;2023-05-10T05:19:23;97654.94;;;11.49;92.51
79671;BME280;69137;50.878;8.050;2023-05-10T05:21:49;97660.34;;;11.54;92.06
79671;BME280;69137;50.878;8.050;2023-05-10T05:24:14;97658.53;;;11.69;92.11
79671;BME280;69137;50.878;8.050;2023-05-10T05:26:40;97671.09;;;11.70;92.59
79671;BME280;69137;50.878;8.050;2023-05-10T05:29:05;97671.81;;;11.80;91.91
79671;BME280;69137;50.878;8.050;2023-05-10T05:31:31;97674.56;;;11.80;92.14
79671;BME280;69137;50.878;8.050;2023-05-10T05:33:56;97683.56;;;11.86;90.96
79671;BME280;69137;50.878;8.050;2023-05-10T05:36:22;97680.84;;;11.81;90.57
79671;BME280;69137;50.878;8.050;2023-05-10T05:38:47;97681.50;;;11.73;91.86
79671;BME280;69137;50.878;8.050;2023-05-10T05:41:13;97683.09;;;11.74;91.07
79671;BME280;69137;50.878;8.050;2023-05-10T05:43:38;97687.19;;;11.76;90.92
79671;BME280;69137;50.878;8.050;2023-05-10T05:46:05;97693.72;;;11.80;91.98
79671;BME280;69137;50.878;8.050;2023-05-10T05:48:30;97698.88;;;11.82;92.17
79671;BME280;69137;50.878;8.050;2023-05-10T05:50:56;97706.63;;;11.75;91.69
79671;BME280;69137;50.878;8.050;2023-05-10T05:53:24;97706.34;;;11.76;91.28
79671;BME280;69137;50.878;8.050;2023-05-10T05:55:54;97704.88;;;11.84;90.51
79671;BME280;69137;50.878;8.050;2023-05-10T05:58:21;97699.69;;;11.82;91.26
79671;BME280;69137;50.878;8.050;2023-05-10T06:00:46;97700.22;;;11.85;91.32
79671;BME280;69137;50.878;8.050;2023-05-10T06:06:52;97709.09;;;12.00;90.95
79671;BME280;69137;50.878;8.050;2023-05-10T06:10:18;97719.41;;;12.09;91.12
79671;BME280;69137;50.878;8.050;2023-05-10T06:23:00;97710.44;;;12.03;89.92
79671;BME280;69137;50.878;8.050;2023-05-10T06:26:14;97723.19;;;12.13;89.18
79671;BME280;69137;50.878;8.050;2023-05-10T06:29:42;97741.50;;;12.17;90.22
79671;BME280;69137;50.878;8.050;2023-05-10T06:32:30;97734.97;;;12.13;89.59
79671;BME280;69137;50.878;8.050;2023-05-10T06:34:55;97727.22;;;12.20;89.68
79671;BME280;69137;50.878;8.050;2023-05-10T06:37:21;97737.81;;;12.27;89.16
79671;BME280;69137;50.878;8.050;2023-05-10T06:39:46;97737.50;;;12.29;90.45
79671;BME280;69137;50.878;8.050;2023-05-10T06:42:11;97739.59;;;12.37;88.95
79671;BME280;69137;50.878;8.050;2023-05-10T06:44:37;97738.59;;;12.52;88.15
79671;BME280;69137;50.878;8.050;2023-05-10T06:47:02;97739.03;;;12.59;90.02
79671;BME280;69137;50.878;8.050;2023-05-10T06:49:28;97739.03;;;12.59;89.95
79671;BME280;69137;50.878;8.050;2023-05-10T06:51:53;97738.66;;;12.65;88.17
79671;BME280;69137;50.878;8.050;2023-05-10T06:54:20;97734.97;;;12.75;89.19
79671;BME280;69137;50.878;8.050;2023-05-10T06:56:45;97735.72;;;12.81;88.72
79671;BME280;69137;50.878;8.050;2023-05-10T06:59:11;97743.19;;;12.94;88.56
79671;BME280;69137;50.878;8.050;2023-05-10T07:01:37;97750.38;;;13.09;87.82
79671;BME280;69137;50.878;8.050;2023-05-10T07:04:03;97744.88;;;13.09;86.54
79671;BME280;69137;50.878;8.050;2023-05-10T07:06:28;97752.44;;;13.17;88.47
79671;BME280;69137;50.878;8.050;2023-05-10T07:08:54;97751.69;;;13.11;86.51
79671;BME280;69137;50.878;8.050;2023-05-10T07:11:19;97753.03;;;13.14;87.16
79671;BME280;69137;50.878;8.050;2023-05-10T07:13:44;97750.91;;;13.11;87.05
79671;BME280;69137;50.878;8.050;2023-05-10T07:16:11;97754.88;;;13.19;86.80
79671;BME280;69137;50.878;8.050;2023-05-10T07:18:37;97760.38;;;13.19;88.00
79671;BME280;69137;50.878;8.050;2023-05-10T07:21:02;97765.06;;;13.18;87.21
79671;BME280;69137;50.878;8.050;2023-05-10T07:23:28;97764.41;;;13.07;88.10
79671;BME280;69137;50.878;8.050;2023-05-10T07:25:53;97774.69;;;12.97;87.88
79671;BME280;69137;50.878;8.050;2023-05-10T07:28:19;97776.47;;;13.06;88.08
79671;BME280;69137;50.878;8.050;2023-05-10T07:30:45;97770.59;;;12.94;88.11
79671;BME280;69137;50.878;8.050;2023-05-10T07:33:12;97768.78;;;12.89;87.93
79671;BME280;69137;50.878;8.050;2023-05-10T07:35:38;97770.78;;;13.03;87.71
79671;BME280;69137;50.878;8.050;2023-05-10T07:38:04;97776.31;;;12.98;87.71
79671;BME280;69137;50.878;8.050;2023-05-10T07:40:30;97768.91;;;12.98;88.10
79671;BME280;69137;50.878;8.050;2023-05-10T07:42:55;97777.59;;;13.05;87.53
79671;BME280;69137;50.878;8.050;2023-05-10T07:45:21;97779.44;;;13.10;86.49
79671;BME280;69137;50.878;8.050;2023-05-10T07:47:47;97775.56;;;13.11;87.18
79671;BME280;69137;50.878;8.050;2023-05-10T07:50:12;97774.41;;;12.98;87.10
79671;BME280;69137;50.878;8.050;2023-05-10T07:52:37;97779.34;;;12.96;86.65
79671;BME280;69137;50.878;8.050;2023-05-10T07:55:03;97775.50;;;12.78;86.92
79671;BME280;69137;50.878;8.050;2023-05-10T07:57:29;97783.78;;;12.73;88.17
79671;BME280;69137;50.878;8.050;2023-05-10T07:59:55;97773.34;;;12.56;88.65
79671;BME280;69137;50.878;8.050;2023-05-10T08:02:21;97788.72;;;12.52;88.11
79671;BME280;69137;50.878;8.050;2023-05-10T08:04:46;97779.91;;;12.55;88.15
79671;BME280;69137;50.878;8.050;2023-05-10T08:07:12;97790.88;;;12.55;89.05
79671;BME280;69137;50.878;8.050;2023-05-10T08:09:37;97785.25;;;12.65;88.19
79671;BME280;69137;50.878;8.050;2023-05-10T08:12:03;97796.47;;;12.88;88.92
79671;BME280;69137;50.878;8.050;2023-05-10T08:14:29;97796.31;;;12.98;89.23
79671;BME280;69137;50.878;8.050;2023-05-10T08:16:54;97804.13;;;13.10;87.93
79671;BME280;69137;50.878;8.050;2023-05-10T08:19:20;97801.53;;;13.00;87.11
79671;BME280;69137;50.878;8.050;2023-05-10T08:21:47;97798.69;;;12.86;86.63
79671;BME280;69137;50.878;8.050;2023-05-10T08:24:12;97802.31;;;12.81;87.20
79671;BME280;69137;50.878;8.050;2023-05-10T08:26:38;97805.22;;;12.71;87.41
79671;BME280;69137;50.878;8.050;2023-05-10T08:29:03;97806.69;;;12.63;88.05
79671;BME280;69137;50.878;8.050;2023-05-10T08:31:28;97812.22;;;12.58;88.72
79671;BME280;69137;50.878;8.050;2023-05-10T08:33:54;97812.09;;;12.44;88.32
79671;BME280;69137;50.878;8.050;2023-05-10T08:36:19;97812.91;;;12.45;89.65
79671;BME280;69137;50.878;8.050;2023-05-10T08:38:50;97816.38;;;12.56;89.28
79671;BME280;69137;50.878;8.050;2023-05-10T08:41:20;97825.78;;;12.68;89.34
79671;BME280;69137;50.878;8.050;2023-05-10T08:43:47;97816.78;;;12.87;89.22
79671;BME280;69137;50.878;8.050;2023-05-10T08:46:15;97816.72;;;12.92;87.46
79671;BME280;69137;50.878;8.050;2023-05-10T08:48:44;97820.47;;;12.96;88.93
79671;BME280;69137;50.878;8.050;2023-05-10T08:51:13;97827.53;;;13.02;88.67
79671;BME280;69137;50.878;8.050;2023-05-10T08:53:39;97824.06;;;13.16;85.47
79671;BME280;69137;50.878;8.050;2023-05-10T08:56:05;97824.56;;;13.18;85.09
79671;BME280;69137;50.878;8.050;2023-05-10T08:58:31;97820.19;;;13.17;86.46
79671;BME280;69137;50.878;8.050;2023-05-10T09:00:57;97827.53;;;13.02;84.83
79671;BME280;69137;50.878;8.050;2023-05-10T09:03:23;97829.22;;;12.98;86.28
79671;BME280;69137;50.878;8.050;2023-05-10T09:05:48;97836.06;;;13.01;85.56
79671;BME280;69137;50.878;8.050;2023-05-10T09:08:15;97835.38;;;13.09;84.68
79671;BME280;69137;50.878;8.050;2023-05-10T09:10:43;97829.16;;;13.03;85.67
79671;BME280;69137;50.878;8.050;2023-05-10T09:13:10;97837.66;;;13.02;85.48
79671;BME280;69137;50.878;8.050;2023-05-10T09:15:35;97841.47;;;13.06;86.18
79671;BME280;69137;50.878;8.050;2023-05-10T09:18:01;97846.34;;;13.09;85.35
79671;BME280;69137;50.878;8.050;2023-05-10T09:20:27;97845.47;;;13.14;85.56
79671;BME280;69137;50.878;8.050;2023-05-10T09:22:53;97846.94;;;13.25;86.11
79671;BME280;69137;50.878;8.050;2023-05-10T09:25:18;97848.84;;;13.29;85.77
79671;BME280;69137;50.878;8.050;2023-05-10T09:27:45;97857.09;;;13.24;85.69
79671;BME280;69137;50.878;8.050;2023-05-10T09:30:25;97840.94;;;13.23;86.87
79671;BME280;69137;50.878;8.050;2023-05-10T09:32:52;97846.31;;;13.33;86.96
79671;BME280;69137;50.878;8.050;2023-05-10T09:35:20;97848.56;;;13.31;86.40
79671;BME280;69137;50.878;8.050;2023-05-10T09:37:51;97846.09;;;13.29;84.97
79671;BME280;69137;50.878;8.050;2023-05-10T09:40:21;97852.81;;;13.18;85.10
79671;BME280;69137;50.878;8.050;2023-05-10T09:43:00;97855.97;;;13.25;84.99
79671;BME280;69137;50.878;8.050;2023-05-10T09:45:28;97851.28;;;13.31;85.01
79671;BME280;69137;50.878;8.050;2023-05-10T09:47:55;97854.25;;;13.35;84.61
79671;BME280;69137;50.878;8.050;2023-05-10T09:50:21;97855.72;;;13.46;84.22
79671;BME280;69137;50.878;8.050;2023-05-10T09:55:21;97862.03;;;13.46;83.80
79671;BME280;69137;50.878;8.050;2023-05-10T09:57:48;97858.91;;;13.53;81.77
79671;BME280;69137;50.878;8.050;2023-05-10T10:00:20;97859.44;;;13.55;82.92
79671;BME280;69137;50.878;8.050;2023-05-10T10:02:47;97861.22;;;13.65;84.16
79671;BME280;69137;50.878;8.050;2023-05-10T10:05:14;97851.03;;;13.65;84.61
79671;BME280;69137;50.878;8.050;2023-05-10T10:07:40;97855.72;;;13.65;82.70
79671;BME280;69137;50.878;8.050;2023-05-10T10:10:06;97856.00;;;13.63;83.51
79671;BME280;69137;50.878;8.050;2023-05-10T10:12:36;97859.72;;;13.72;82.10
79671;BME280;69137;50.878;8.050;2023-05-10T10:15:02;97864.28;;;13.77;82.81
79671;BME280;69137;50.878;8.050;2023-05-10T10:17:30;97859.75;;;13.86;82.17
79671;BME280;69137;50.878;8.050;2023-05-10T10:19:57;97859.88;;;13.95;83.57
79671;BME280;69137;50.878;8.050;2023-05-10T10:22:22;97865.66;;;13.93;82.12
79671;BME280;69137;50.878;8.050;2023-05-10T10:24:48;97861.16;;;13.84;81.82
79671;BME280;69137;50.878;8.050;2023-05-10T10:27:24;97866.94;;;13.82;84.78
79671;BME280;69137;50.878;8.050;2023-05-10T10:35:33;97875.25;;;13.44;83.84
79671;BME280;69137;50.878;8.050;2023-05-10T10:38:00;97865.22;;;13.35;85.71
79671;BME280;69137;50.878;8.050;2023-05-10T10:40:32;97872.25;;;13.41;86.94
79671;BME280;69137;50.878;8.050;2023-05-10T10:43:22;97862.09;;;13.60;86.00
79671;BME280;69137;50.878;8.050;2023-05-10T10:46:16;97862.94;;;13.74;85.44
79671;BME280;69137;50.878;8.050;2023-05-10T10:48:50;97865.84;;;13.83;84.30
79671;BME280;69137;50.878;8.050;2023-05-10T10:51:16;97869.94;;;13.99;83.23
79671;BME280;69137;50.878;8.050;2023-05-10T10:53:42;97861.44;;;14.15;83.59
79671;BME280;69137;50.878;8.050;2023-05-10T10:56:10;97866.34;;;14.32;84.23
79671;BME280;69137;50.878;8.050;2023-05-10T10:58:39;97867.47;;;14.45;84.72
79671;BME280;69137;50.878;8.050;2023-05-10T11:03:39;97864.34;;;14.51;81.41
79671;BME280;69137;50.878;8.050;2023-05-10T11:06:04;97870.28;;;14.58;84.11
79671;BME280;69137;50.878;8.050;2023-05-10T11:08:31;97863.16;;;14.71;83.34
79671;BME280;69137;50.878;8.050;2023-05-10T11:13:39;97862.97;;;14.81;80.14
79671;BME280;69137;50.878;8.050;2023-05-10T11:19:06;97860.69;;;14.83;80.87
79671;BME280;69137;50.878;8.050;2023-05-10T11:21:34;97867.50;;;14.86;82.82
79671;BME280;69137;50.878;8.050;2023-05-10T11:24:14;97871.00;;;14.78;80.35
79671;BME280;69137;50.878;8.050;2023-05-10T11:26:39;97869.16;;;14.73;81.61
79671;BME280;69137;50.878;8.050;2023-05-10T11:29:05;97877.28;;;14.78;80.04
79671;BME280;69137;50.878;8.050;2023-05-10T11:31:30;97881.47;;;14.76;78.71
79671;BME280;69137;50.878;8.050;2023-05-10T11:33:57;97895.13;;;14.53;78.94
79671;BME280;69137;50.878;8.050;2023-05-10T11:36:26;97881.06;;;14.08;80.45
79671;BME280;69137;50.878;8.050;2023-05-10T11:38:52;97892.34;;;13.74;81.90
79671;BME280;69137;50.878;8.050;2023-05-10T11:41:18;97887.91;;;13.40;84.72
79671;BME280;69137;50.878;8.050;2023-05-10T11:43:46;97908.22;;;13.15;86.99
79671;BME280;69137;50.878;8.050;2023-05-10T11:46:13;97899.78;;;12.93;87.26
79671;BME280;69137;50.878;8.050;2023-05-10T11:48:39;97914.25;;;12.74;87.05
79671;BME280;69137;50.878;8.050;2023-05-10T11:51:07;97922.63;;;12.59;89.58
79671;BME280;69137;50.878;8.050;2023-05-10T11:53:36;97919.38;;;12.57;87.27
79671;BME280;69137;50.878;8.050;2023-05-10T11:56:09;97917.75;;;12.56;89.29
79671;BME280;69137;50.878;8.050;2023-05-10T11:58:36;97926.47;;;12.58;89.97
79671;BME280;69137;50.878;8.050;2023-05-10T12:01:02;97931.91;;;12.63;90.28
79671;BME280;69137;50.878;8.050;2023-05-10T12:03:29;97929.16;;;12.63;89.60
79671;BME280;69137;50.878;8.050;2023-05-10T12:05:58;97938.31;;;12.53;89.45
79671;BME280;69137;50.878;8.050;2023-05-10T12:08:25;97937.69;;;12.61;90.04
79671;BME280;69137;50.878;8.050;2023-05-10T12:10:52;97934.34;;;12.64;86.85
79671;BME280;69137;50.878;8.050;2023-05-10T12:13:18;97933.75;;;12.67;88.64
79671;BME280;69137;50.878;8.050;2023-05-10T12:15:45;97934.72;;;12.82;87.82
79671;BME280;69137;50.878;8.050;2023-05-10T12:18:14;97943.06;;;12.72;87.44
79671;BME280;69137;50.878;8.050;2023-05-10T12:20:40;97942.47;;;12.75;89.10
79671;BME280;69137;50.878;8.050;2023-05-10T12:23:08;97931.13;;;12.81;88.20
79671;BME280;69137;50.878;8.050;2023-05-10T12:25:36;97938.66;;;12.71;88.00
79671;BME280;69137;50.878;8.050;2023-05-10T12:28:07;97939.50;;;12.95;88.13
79671;BME280;69137;50.878;8.050;2023-05-10T12:30:35;97946.53;;;13.01;87.29
79671;BME280;69137;50.878;8.050;2023-05-10T12:35:32;97947.69;;;13.19;88.12
79671;BME280;69137;50.878;8.050;2023-05-10T12:37:57;97952.38;;;13.19;87.67
79671;BME280;69137;50.878;8.050;2023-05-10T12:40:23;97948.28;;;13.40;87.43
79671;BME280;69137;50.878;8.050;2023-05-10T12:42:48;97951.09;;;13.54;87.64
79671;BME280;69137;50.878;8.050;2023-05-10T12:45:14;97952.06;;;13.63;85.87
79671;BME280;69137;50.878;8.050;2023-05-10T12:47:40;97956.59;;;13.73;87.11
79671;BME280;69137;50.878;8.050;2023-05-10T12:50:05;97954.88;;;13.77;85.38
79671;BME280;69137;50.878;8.050;2023-05-10T12:52:31;97961.94;;;13.83;85.41
79671;BME280;69137;50.878;8.050;2023-05-10T12:55:00;97961.78;;;13.74;84.02
79671;BME280;69137;50.878;8.050;2023-05-10T12:57:26;97963.09;;;13.77;85.19
79671;BME280;69137;50.878;8.050;2023-05-10T12:59:51;97959.28;;;13.78;85.22
79671;BME280;69137;50.878;8.050;2023-05-10T13:02:16;97956.38;;;13.88;85.52
79671;BME280;69137;50.878;8.050;2023-05-10T13:04:46;97959.25;;;13.97;82.38
79671;BME280;69137;50.878;8.050;2023-05-10T13:07:12;97963.25;;;14.05;83.85
79671;BME280;69137;50.878;8.050;2023-05-10T13:09:37;97964.28;;;14.09;83.50
79671;BME280;69137;50.878;8.050;2023-05-10T13:12:03;97959.91;;;14.08;82.42
79671;BME280;69137;50.878;8.050;2023-05-10T13:14:29;97953.06;;;14.05;83.38
79671;BME280;69137;50.878;8.050;2023-05-10T13:16:55;97959.53;;;14.14;84.73
79671;BME280;69137;50.878;8.050;2023-05-10T13:19:20;97956.63;;;14.38;84.02
79671;BME280;69137;50.878;8.050;2023-05-10T13:21:46;97949.63;;;14.46;84.38
79671;BME280;69137;50.878;8.050;2023-05-10T13:24:11;97953.69;;;14.35;81.26
79671;BME280;69137;50.878;8.050;2023-05-10T13:26:39;97957.34;;;14.30;83.04
79671;BME280;69137;50.878;8.050;2023-05-10T13:29:05;97951.03;;;14.30;84.77
79671;BME280;69137;50.878;8.050;2023-05-10T13:31:30;97960.78;;;14.22;84.45
79671;BME280;69137;50.878;8.050;2023-05-10T13:33:56;97958.91;;;14.17;82.54
79671;BME280;69137;50.878;8.050;2023-05-10T13:36:21;97960.25;;;14.20;82.55
79671;BME280;69137;50.878;8.050;2023-05-10T13:38:48;97956.00;;;14.28;82.72
79671;BME280;69137;50.878;8.050;2023-05-10T13:41:13;97958.06;;;14.36;83.06
79671;BME280;69137;50.878;8.050;2023-05-10T13:43:39;97955.94;;;14.47;81.93
79671;BME280;69137;50.878;8.050;2023-05-10T13:46:04;97954.69;;;14.58;80.57
79671;BME280;69137;50.878;8.050;2023-05-10T13:48:30;97961.75;;;14.45;81.24
79671;BME280;69137;50.878;8.050;2023-05-10T13:50:55;97956.25;;;14.45;80.76